Time,TemperatureF,DewpointF,PressureIn,WindDirection,WindDirectionDegrees,WindSpeedMPH,WindSpeedGustMPH,Humidity,HourlyPrecipIn,Conditions,Clouds,dailyrainin,SoftwareType,DateUTC
2013-06-01 00:03:00,44.2,40.0,30.11,ENE,59,0.0,0.0,84,0.00,,,0.00,weatherlink.com 1.10,2013-06-01 06:03:00,
2013-06-01 00:18:00,43.9,39.0,30.11,ENE,59,0.0,0.0,84,0.00,,,0.00,weatherlink.com 1.10,2013-06-01 06:18:00,
2013-06-01 00:33:00,43.3,38.0,30.12,ENE,59,0.0,0.0,82,0.00,,,0.00,weatherlink.com 1.10,2013-06-01 06:33:00,
2013-06-01 00:48:00,42.3,38.0,30.13,ENE,59,0.0,0.0,86,0.00,,,0.00,weatherlink.com 1.10,2013-06-01 06:48:00,
2013-06-01 01:03:00,41.9,38.0,30.13,ENE,59,0.0,0.0,86,0.00,,,0.00,weatherlink.com 1.10,2013-06-01 07:03:00,
2013-06-01 01:18:00,41.1,38.0,30.13,ENE,59,0.0,0.0,87,0.00,,,0.00,weatherlink.com 1.10,2013-06-01 07:18:00,
2013-06-01 01:33:00,40.5,38.0,30.13,ENE,59,0.0,0.0,90,0.00,,,0.00,weatherlink.com 1.10,2013-06-01 07:33:00,
2013-06-01 01:48:00,40.9,38.0,30.13,ENE,59,0.0,0.0,88,0.00,,,0.00,weatherlink.com 1.10,2013-06-01 07:48:00,
2013-06-01 02:03:00,40.6,37.0,30.13,ENE,59,0.0,0.0,88,0.00,,,0.00,weatherlink.com 1.10,2013-06-01 08:03:00,
2013-06-01 02:18:00,39.8,37.0,30.14,ENE,59,0.0,0.0,90,0.00,,,0.00,weatherlink.com 1.10,2013-06-01 08:18:00,
2013-06-01 02:33:00,40.1,37.0,30.14,ENE,59,0.0,0.0,89,0.00,,,0.00,weatherlink.com 1.10,2013-06-01 08:33:00,
2013-06-01 02:48:00,39.0,36.0,30.14,ENE,59,0.0,0.0,90,0.00,,,0.00,weatherlink.com 1.10,2013-06-01 08:48:00,
2013-06-01 03:03:00,38.2,36.0,30.14,ENE,59,0.0,0.0,92,0.00,,,0.00,weatherlink.com 1.10,2013-06-01 09:03:00,
2013-06-01 03:18:00,38.7,37.0,30.14,ENE,59,0.0,2.0,92,0.00,,,0.00,weatherlink.com 1.10,2013-06-01 09:18:00,
2013-06-01 03:33:00,39.2,36.0,30.14,ENE,59,0.0,0.0,89,0.00,,,0.00,weatherlink.com 1.10,2013-06-01 09:33:00,
2013-06-01 03:48:00,38.3,36.0,30.14,NNE,15,0.0,1.0,90,0.00,,,0.00,weatherlink.com 1.10,2013-06-01 09:48:00,
2013-06-01 04:03:00,37.4,35.0,30.14,ESE,113,0.0,1.0,91,0.00,,,0.00,weatherlink.com 1.10,2013-06-01 10:03:00,
2013-06-01 04:18:00,36.6,35.0,30.14,ESE,113,0.0,0.0,92,0.00,,,0.00,weatherlink.com 1.10,2013-06-01 10:18:00,
2013-06-01 04:33:00,36.1,34.0,30.15,NW,308,0.0,1.0,93,0.00,,,0.00,weatherlink.com 1.10,2013-06-01 10:33:00,
2013-06-01 04:48:00,36.2,35.0,30.15,NW,308,0.0,0.0,94,0.00,,,0.00,weatherlink.com 1.10,2013-06-01 10:48:00,
2013-06-01 05:03:00,35.5,34.0,30.14,NW,308,0.0,0.0,94,0.00,,,0.00,weatherlink.com 1.10,2013-06-01 11:03:00,
2013-06-01 05:18:00,35.6,34.0,30.14,ENE,61,1.0,2.0,95,0.00,,,0.00,weatherlink.com 1.10,2013-06-01 11:18:00,
2013-06-01 05:33:00,36.1,34.0,30.15,ENE,61,0.0,2.0,93,0.00,,,0.00,weatherlink.com 1.10,2013-06-01 11:33:00,
2013-06-01 05:48:00,35.1,34.0,30.14,ENE,59,0.0,2.0,94,0.00,,,0.00,weatherlink.com 1.10,2013-06-01 11:48:00,
2013-06-01 06:03:00,34.8,33.0,30.15,ENE,59,0.0,0.0,94,0.00,,,0.00,weatherlink.com 1.10,2013-06-01 12:03:00,
2013-06-01 06:18:00,34.7,33.0,30.15,ENE,59,0.0,0.0,94,0.00,,,0.00,weatherlink.com 1.10,2013-06-01 12:18:00,
2013-06-01 06:34:00,34.2,33.0,30.15,ENE,59,0.0,0.0,95,0.00,,,0.00,weatherlink.com 1.10,2013-06-01 12:34:00,
2013-06-01 06:49:00,34.7,34.0,30.15,ENE,59,0.0,0.0,95,0.00,,,0.00,weatherlink.com 1.10,2013-06-01 12:49:00,
2013-06-01 07:04:00,35.6,34.0,30.15,ENE,59,0.0,0.0,95,0.00,,,0.00,weatherlink.com 1.10,2013-06-01 13:04:00,
2013-06-01 07:19:00,36.4,35.0,30.15,ENE,59,0.0,0.0,95,0.00,,,0.00,weatherlink.com 1.10,2013-06-01 13:19:00,
2013-06-01 07:34:00,37.0,36.0,30.15,ENE,59,0.0,0.0,95,0.00,,,0.00,weatherlink.com 1.10,2013-06-01 13:34:00,
2013-06-01 07:49:00,38.4,37.0,30.15,ENE,59,0.0,0.0,94,0.00,,,0.00,weatherlink.com 1.10,2013-06-01 13:49:00,
2013-06-01 08:04:00,40.2,38.0,30.15,ENE,59,0.0,0.0,91,0.00,,,0.00,weatherlink.com 1.10,2013-06-01 14:04:00,
2013-06-01 08:19:00,42.3,39.0,30.15,ENE,59,0.0,0.0,87,0.00,,,0.00,weatherlink.com 1.10,2013-06-01 14:19:00,
2013-06-01 08:34:00,44.0,40.0,30.14,ENE,59,0.0,1.0,85,0.00,,,0.00,weatherlink.com 1.10,2013-06-01 14:34:00,
2013-06-01 08:49:00,44.9,37.0,30.13,SSW,194,0.0,5.0,75,0.00,,,0.00,weatherlink.com 1.10,2013-06-01 14:49:00,
2013-06-01 09:04:00,46.0,37.0,30.13,SW,227,1.0,5.0,70,0.00,,,0.00,weatherlink.com 1.10,2013-06-01 15:04:00,
2013-06-01 09:19:00,47.6,37.0,30.12,WSW,242,2.0,6.0,66,0.00,,,0.00,weatherlink.com 1.10,2013-06-01 15:19:00,
2013-06-01 09:34:00,48.6,35.0,30.11,SSE,154,1.0,7.0,60,0.00,,,0.00,weatherlink.com 1.10,2013-06-01 15:34:00,
2013-06-01 09:49:00,49.5,36.0,30.11,SE,132,5.0,6.0,61,0.00,,,0.00,weatherlink.com 1.10,2013-06-01 15:49:00,
2013-06-01 10:04:00,51.7,37.0,30.10,SSW,209,4.0,7.0,58,0.00,,,0.00,weatherlink.com 1.10,2013-06-01 16:04:00,
2013-06-01 10:19:00,52.4,36.0,30.09,SSE,148,4.0,9.0,53,0.00,,,0.00,weatherlink.com 1.10,2013-06-01 16:19:00,
2013-06-01 10:34:00,54.1,36.0,30.07,SW,236,4.0,8.0,51,0.00,,,0.00,weatherlink.com 1.10,2013-06-01 16:34:00,
2013-06-01 10:49:00,55.6,38.0,30.06,SW,227,1.0,8.0,51,0.00,,,0.00,weatherlink.com 1.10,2013-06-01 16:49:00,
2013-06-01 11:04:00,56.9,39.0,30.06,WSW,248,2.0,7.0,51,0.00,,,0.00,weatherlink.com 1.10,2013-06-01 17:04:00,
2013-06-01 11:20:00,58.1,38.0,30.05,SW,219,0.0,3.0,47,0.00,,,0.00,weatherlink.com 1.10,2013-06-01 17:20:00,
2013-06-01 11:35:00,59.7,38.0,30.05,WSW,240,1.0,5.0,45,0.00,,,0.00,weatherlink.com 1.10,2013-06-01 17:35:00,
2013-06-01 11:50:00,61.1,38.0,30.04,NW,305,5.0,6.0,42,0.00,,,0.00,weatherlink.com 1.10,2013-06-01 17:50:00,
2013-06-01 12:05:00,61.2,35.0,30.03,West,277,1.0,8.0,38,0.00,,,0.00,weatherlink.com 1.10,2013-06-01 18:05:00,
2013-06-01 12:20:00,62.2,35.0,30.02,WSW,250,4.0,9.0,36,0.00,,,0.00,weatherlink.com 1.10,2013-06-01 18:20:00,
2013-06-01 12:35:00,63.1,35.0,30.01,SW,232,6.0,8.0,35,0.00,,,0.00,weatherlink.com 1.10,2013-06-01 18:35:00,
2013-06-01 12:50:00,64.2,34.0,30.01,SE,141,2.0,4.0,33,0.00,,,0.00,weatherlink.com 1.10,2013-06-01 18:50:00,
2013-06-01 13:05:00,65.2,34.0,30.00,NE,34,4.0,6.0,32,0.00,,,0.00,weatherlink.com 1.10,2013-06-01 19:05:00,
2013-06-01 13:20:00,65.8,36.0,29.99,West,277,3.0,9.0,33,0.00,,,0.00,weatherlink.com 1.10,2013-06-01 19:20:00,
2013-06-01 13:35:00,66.3,33.0,29.98,SSW,199,5.0,8.0,29,0.00,,,0.00,weatherlink.com 1.10,2013-06-01 19:35:00,
2013-06-01 13:50:00,66.6,34.0,29.98,WSW,248,6.0,8.0,30,0.00,,,0.00,weatherlink.com 1.10,2013-06-01 19:50:00,
2013-06-01 14:05:00,66.2,30.0,29.97,WNW,286,1.0,6.0,26,0.00,,,0.00,weatherlink.com 1.10,2013-06-01 20:05:00,
2013-06-01 14:20:00,66.5,33.0,29.96,NW,317,3.0,5.0,29,0.00,,,0.00,weatherlink.com 1.10,2013-06-01 20:20:00,
2013-06-01 14:35:00,66.2,35.0,29.96,WNW,303,1.0,5.0,31,0.01,,,0.01,weatherlink.com 1.10,2013-06-01 20:35:00,
2013-06-01 14:50:00,66.1,34.0,29.95,WNW,282,2.0,5.0,31,0.01,,,0.01,weatherlink.com 1.10,2013-06-01 20:50:00,
2013-06-01 15:05:00,66.1,34.0,29.95,NNW,343,2.0,5.0,30,0.01,,,0.01,weatherlink.com 1.10,2013-06-01 21:05:00,
2013-06-01 15:20:00,66.0,34.0,29.94,NNW,328,3.0,6.0,31,0.01,,,0.01,weatherlink.com 1.10,2013-06-01 21:20:00,
2013-06-01 15:35:00,66.4,35.0,29.93,NW,317,0.0,5.0,31,0.00,,,0.01,weatherlink.com 1.10,2013-06-01 21:35:00,
2013-06-01 15:50:00,67.6,37.0,29.93,NW,325,6.0,8.0,32,0.00,,,0.01,weatherlink.com 1.10,2013-06-01 21:50:00,
2013-06-01 16:05:00,68.1,37.0,29.92,West,269,3.0,8.0,32,0.00,,,0.01,weatherlink.com 1.10,2013-06-01 22:05:00,
2013-06-01 16:20:00,68.0,35.0,29.92,West,265,1.0,7.0,30,0.00,,,0.01,weatherlink.com 1.10,2013-06-01 22:20:00,
2013-06-01 16:35:00,69.1,37.0,29.91,NW,310,6.0,9.0,31,0.00,,,0.01,weatherlink.com 1.10,2013-06-01 22:35:00,
2013-06-01 16:51:00,69.9,37.0,29.91,West,261,6.0,10.0,30,0.00,,,0.01,weatherlink.com 1.10,2013-06-01 22:51:00,
2013-06-01 17:06:00,69.8,38.0,29.90,NNW,331,4.0,10.0,31,0.00,,,0.01,weatherlink.com 1.10,2013-06-01 23:06:00,
2013-06-01 17:21:00,69.4,36.0,29.90,WNW,295,5.0,10.0,29,0.00,,,0.01,weatherlink.com 1.10,2013-06-01 23:21:00,
2013-06-01 17:36:00,69.9,34.0,29.90,NW,317,5.0,9.0,27,0.00,,,0.01,weatherlink.com 1.10,2013-06-01 23:36:00,
2013-06-01 17:51:00,69.5,36.0,29.89,NW,311,4.0,9.0,29,0.00,,,0.01,weatherlink.com 1.10,2013-06-01 23:51:00,
2013-06-01 18:06:00,69.2,33.0,29.89,NNW,327,4.0,7.0,26,0.00,,,0.01,weatherlink.com 1.10,2013-06-02 00:06:00,
2013-06-01 18:21:00,68.8,35.0,29.88,WNW,302,3.0,7.0,29,0.00,,,0.01,weatherlink.com 1.10,2013-06-02 00:21:00,
2013-06-01 18:36:00,68.5,36.0,29.88,NW,309,4.0,6.0,30,0.00,,,0.01,weatherlink.com 1.10,2013-06-02 00:36:00,
2013-06-01 18:51:00,68.5,38.0,29.87,NW,316,4.0,6.0,33,0.00,,,0.01,weatherlink.com 1.10,2013-06-02 00:51:00,
2013-06-01 19:06:00,68.1,39.0,29.87,NW,324,1.0,7.0,34,0.00,,,0.01,weatherlink.com 1.10,2013-06-02 01:06:00,
2013-06-01 19:21:00,67.5,37.0,29.87,NW,310,2.0,4.0,33,0.00,,,0.01,weatherlink.com 1.10,2013-06-02 01:21:00,
2013-06-01 19:36:00,67.1,37.0,29.86,NW,310,0.0,1.0,33,0.00,,,0.01,weatherlink.com 1.10,2013-06-02 01:36:00,
2013-06-01 19:51:00,66.7,39.0,29.86,NW,310,1.0,3.0,36,0.00,,,0.01,weatherlink.com 1.10,2013-06-02 01:51:00,
2013-06-01 20:06:00,66.3,38.0,29.86,NW,315,2.0,7.0,36,0.00,,,0.01,weatherlink.com 1.10,2013-06-02 02:06:00,
2013-06-01 20:21:00,65.8,38.0,29.85,NW,321,0.0,2.0,36,0.00,,,0.01,weatherlink.com 1.10,2013-06-02 02:21:00,
2013-06-01 20:36:00,65.3,39.0,29.85,NW,321,2.0,2.0,38,0.00,,,0.01,weatherlink.com 1.10,2013-06-02 02:36:00,
2013-06-01 20:51:00,64.2,40.0,29.85,ENE,57,4.0,7.0,41,0.00,,,0.01,weatherlink.com 1.10,2013-06-02 02:51:00,
2013-06-01 21:06:00,62.7,38.0,29.85,ENE,61,7.0,8.0,40,0.00,,,0.01,weatherlink.com 1.10,2013-06-02 03:06:00,
2013-06-01 21:21:00,62.0,37.0,29.84,ENE,57,4.0,6.0,39,0.00,,,0.01,weatherlink.com 1.10,2013-06-02 03:21:00,
2013-06-01 21:36:00,61.4,38.0,29.85,NNW,333,3.0,7.0,42,0.00,,,0.01,weatherlink.com 1.10,2013-06-02 03:36:00,
2013-06-01 21:51:00,60.9,37.0,29.84,North,5,3.0,6.0,42,0.00,,,0.01,weatherlink.com 1.10,2013-06-02 03:51:00,
2013-06-01 22:06:00,60.7,37.0,29.84,North,5,3.0,4.0,42,0.00,,,0.01,weatherlink.com 1.10,2013-06-02 04:06:00,
2013-06-01 22:21:00,59.7,38.0,29.85,NNW,348,4.0,6.0,45,0.00,,,0.01,weatherlink.com 1.10,2013-06-02 04:21:00,
2013-06-01 22:36:00,60.3,37.0,29.84,North,350,4.0,10.0,42,0.01,,,0.02,weatherlink.com 1.10,2013-06-02 04:36:00,
2013-06-01 22:51:00,60.7,37.0,29.84,North,11,6.0,10.0,41,0.01,,,0.02,weatherlink.com 1.10,2013-06-02 04:51:00,
2013-06-01 23:06:00,60.9,37.0,29.84,North,5,8.0,12.0,41,0.01,,,0.02,weatherlink.com 1.10,2013-06-02 05:06:00,
2013-06-01 23:21:00,60.7,37.0,29.84,NNW,336,10.0,10.0,42,0.01,,,0.02,weatherlink.com 1.10,2013-06-02 05:21:00,
2013-06-01 23:36:00,60.4,38.0,29.84,NNW,348,5.0,11.0,43,0.00,,,0.02,weatherlink.com 1.10,2013-06-02 05:36:00,
2013-06-01 23:51:00,59.3,38.0,29.83,NNW,333,7.0,11.0,45,0.00,,,0.02,weatherlink.com 1.10,2013-06-02 05:51:00,